createdAt,value
2023-04-06T00:02:45.590Z,2.50
2023-04-06T00:07:50.716Z,2.30
2023-04-06T00:12:54.261Z,2.10
2023-04-06T00:17:58.934Z,2.30
2023-04-06T00:23:03.705Z,2.20
2023-04-06T00:28:07.183Z,1.90
2023-04-06T00:33:11.551Z,1.90
2023-04-06T00:38:19.129Z,2.30
2023-04-06T00:43:23.147Z,2.10
2023-04-06T00:48:26.746Z,1.90
2023-04-06T00:53:32.720Z,2.20
2023-04-06T00:58:39.653Z,2.20
2023-04-06T01:03:45.859Z,2.00
2023-04-06T01:08:54.485Z,2.10
2023-04-06T01:14:00.167Z,1.80
2023-04-06T01:19:13.559Z,1.50
2023-04-06T01:24:25.105Z,1.70
2023-04-06T01:29:44.193Z,2.50
2023-04-06T01:34:52.710Z,1.60
2023-04-06T01:39:58.095Z,1.90
2023-04-06T01:45:15.688Z,1.50
2023-04-06T01:50:22.317Z,1.20
2023-04-06T01:55:27.280Z,1.60
2023-04-06T02:00:48.942Z,1.60
2023-04-06T02:05:56.527Z,1.30
2023-04-06T02:11:09.009Z,1.50
2023-04-06T02:16:20.142Z,1.20
2023-04-06T02:21:25.555Z,1.40
2023-04-06T02:26:31.137Z,1.10
2023-04-06T02:31:34.802Z,0.90
2023-04-06T02:36:40.797Z,1.00
2023-04-06T02:41:46.829Z,0.90
2023-04-06T02:46:58.325Z,0.80
2023-04-06T02:52:03.264Z,0.80
2023-04-06T02:57:12.026Z,1.10
2023-04-06T03:02:20.047Z,0.80
2023-04-06T03:07:24.122Z,1.20
2023-04-06T03:12:29.334Z,1.00
2023-04-06T03:17:52.294Z,0.80
2023-04-06T03:23:28.507Z,0.90
2023-04-06T03:28:38.012Z,0.80
2023-04-06T03:33:43.447Z,0.50
2023-04-06T03:38:54.591Z,0.90
2023-04-06T03:44:00.503Z,0.70
2023-04-06T03:49:04.241Z,0.60
2023-04-06T03:54:08.996Z,0.90
2023-04-06T03:59:25.943Z,1.10
2023-04-06T04:04:31.727Z,1.00
2023-04-06T04:09:37.569Z,1.00
2023-04-06T04:14:42.767Z,1.10
2023-04-06T04:19:47.671Z,0.80
2023-04-06T04:24:59.996Z,0.20
2023-04-06T04:30:08.135Z,0.00
2023-04-06T04:35:15.583Z,-0.10
2023-04-06T04:40:20.588Z,-0.10
2023-04-06T04:45:31.281Z,0.00
2023-04-06T04:50:39.765Z,0.20
2023-04-06T04:55:44.309Z,0.60
2023-04-06T05:00:51.795Z,1.00
2023-04-06T05:05:56.672Z,1.00
2023-04-06T05:11:05.428Z,0.80
2023-04-06T05:16:16.435Z,0.50
2023-04-06T05:21:24.579Z,0.40
2023-04-06T05:26:39.966Z,0.50
2023-04-06T05:31:53.983Z,0.40
2023-04-06T05:36:57.800Z,0.70
2023-04-06T05:42:06.313Z,1.00
2023-04-06T05:47:34.307Z,0.90
2023-04-06T05:52:54.896Z,0.90
2023-04-06T05:58:02.271Z,1.10
2023-04-06T06:03:07.481Z,1.30
2023-04-06T06:08:13.588Z,1.50
2023-04-06T06:13:17.417Z,2.00
2023-04-06T06:18:23.037Z,2.20
2023-04-06T06:23:30.728Z,2.20
2023-04-06T06:28:36.275Z,2.40
2023-04-06T06:33:43.252Z,2.40
2023-04-06T06:38:47.182Z,2.60
2023-04-06T06:43:55.483Z,2.70
2023-04-06T06:49:01.350Z,3.00
2023-04-06T06:54:08.408Z,3.60
2023-04-06T06:59:13.846Z,4.10
2023-04-06T07:04:26.614Z,5.80
2023-04-06T07:09:38.534Z,5.70
2023-04-06T07:14:44.074Z,6.10
2023-04-06T07:19:52.735Z,6.30
2023-04-06T07:24:56.246Z,5.60
2023-04-06T07:30:02.099Z,5.40
2023-04-06T07:35:18.951Z,7.30
2023-04-06T07:40:27.777Z,7.00
2023-04-06T07:45:32.525Z,5.90
2023-04-06T07:50:39.811Z,5.60
2023-04-06T07:55:59.916Z,5.80
2023-04-06T08:01:06.489Z,6.30
2023-04-06T08:06:22.602Z,6.80
2023-04-06T08:11:29.511Z,6.00
2023-04-06T08:16:38.716Z,8.00
2023-04-06T08:21:53.988Z,8.60
2023-04-06T08:27:21.925Z,10.00
2023-04-06T08:32:37.013Z,10.30
2023-04-06T08:37:48.381Z,9.90
2023-04-06T08:42:59.712Z,12.20
2023-04-06T08:48:07.128Z,9.40
2023-04-06T08:53:24.278Z,9.70
2023-04-06T08:58:41.586Z,10.10
2023-04-06T09:03:58.594Z,9.50
2023-04-06T09:09:07.516Z,10.20
2023-04-06T09:14:13.597Z,10.50
2023-04-06T09:19:18.254Z,10.60
2023-04-06T09:24:33.010Z,9.00
2023-04-06T09:29:37.960Z,10.60
2023-04-06T09:34:48.081Z,10.60
2023-04-06T09:45:37.827Z,11.00
2023-04-06T09:50:46.558Z,12.40
2023-04-06T09:55:57.063Z,12.40
2023-04-06T10:01:04.877Z,11.50
2023-04-06T10:06:12.690Z,12.70
2023-04-06T10:11:20.174Z,11.70
2023-04-06T10:16:40.301Z,12.80
2023-04-06T10:21:44.094Z,12.10
2023-04-06T10:27:14.942Z,13.30
2023-04-06T10:32:18.456Z,12.60
2023-04-06T10:37:25.658Z,12.80
2023-04-06T10:42:43.048Z,13.00
2023-04-06T10:48:02.120Z,12.60
2023-04-06T10:53:12.890Z,13.00
2023-04-06T10:59:19.660Z,14.00
2023-04-06T11:05:05.013Z,12.40
2023-04-06T11:10:25.417Z,13.40
2023-04-06T11:15:38.970Z,11.90
2023-04-06T11:26:04.844Z,11.70
2023-04-06T11:31:11.024Z,11.50
2023-04-06T11:36:18.932Z,11.90
2023-04-06T11:41:33.359Z,11.90
2023-04-06T11:46:45.349Z,11.50
2023-04-06T11:51:49.261Z,11.50
2023-04-06T11:57:06.460Z,12.40
2023-04-06T12:02:23.768Z,11.90
2023-04-06T12:07:29.366Z,11.80
2023-04-06T12:12:33.582Z,11.50
2023-04-06T12:17:45.824Z,11.60
2023-04-06T12:22:51.625Z,11.40
2023-04-06T12:28:00.958Z,11.70
2023-04-06T12:33:22.068Z,11.50
2023-04-06T12:38:33.748Z,11.40
2023-04-06T12:43:49.600Z,12.20
2023-04-06T12:49:18.642Z,11.30
2023-04-06T12:54:27.916Z,11.00
2023-04-06T12:59:42.438Z,11.90
2023-04-06T13:04:48.930Z,13.00
2023-04-06T13:09:56.557Z,10.30
2023-04-06T13:15:04.354Z,9.10
2023-04-06T13:20:14.836Z,10.30
2023-04-06T13:25:19.981Z,9.90
2023-04-06T13:30:26.262Z,9.80
2023-04-06T13:35:37.120Z,9.60
2023-04-06T13:40:45.986Z,10.10
2023-04-06T13:45:52.463Z,11.50
2023-04-06T13:51:03.713Z,11.20
2023-04-06T13:56:12.100Z,9.80
2023-04-06T14:01:19.983Z,10.60
2023-04-06T14:06:31.796Z,9.40
2023-04-06T14:11:39.156Z,10.30
2023-04-06T14:17:02.541Z,10.50
2023-04-06T14:22:16.940Z,7.20
2023-04-06T14:33:13.250Z,10.10
2023-04-06T14:38:40.570Z,7.00
2023-04-06T14:43:45.237Z,8.90
2023-04-06T14:49:05.811Z,8.70
2023-04-06T14:54:49.918Z,8.80
2023-04-06T14:59:55.923Z,8.40
2023-04-06T15:05:23.508Z,9.30
2023-04-06T15:10:33.139Z,8.20
2023-04-06T15:15:52.288Z,8.20
2023-04-06T15:21:10.860Z,8.10
2023-04-06T15:27:04.619Z,7.80
2023-04-06T15:37:46.065Z,7.80
2023-04-06T15:48:55.260Z,7.60
2023-04-06T15:54:04.853Z,8.00
2023-04-06T16:00:02.752Z,8.40
2023-04-06T16:05:07.690Z,6.80
2023-04-06T16:10:24.124Z,8.00
2023-04-06T16:15:42.038Z,7.80
2023-04-06T16:20:57.178Z,7.90
2023-04-06T16:26:18.286Z,7.20
2023-04-06T16:31:38.311Z,7.70
2023-04-06T16:36:50.090Z,7.40
2023-04-06T16:42:09.979Z,7.50
2023-04-06T16:47:16.120Z,9.00
2023-04-06T16:52:26.021Z,5.80
2023-04-06T16:57:50.209Z,8.20
2023-04-06T17:03:19.361Z,7.80
2023-04-06T17:14:46.237Z,7.30
2023-04-06T17:20:05.360Z,7.20
2023-04-06T17:25:36.103Z,7.00
2023-04-06T17:36:36.828Z,7.40
2023-04-06T17:41:51.385Z,9.30
2023-04-06T17:47:40.545Z,7.10
2023-04-06T18:04:24.921Z,7.50
2023-04-06T18:09:32.882Z,7.30
2023-04-06T18:14:37.649Z,7.30
2023-04-06T18:19:47.310Z,8.50
2023-04-06T18:25:12.883Z,8.10
2023-04-06T18:30:30.034Z,7.40
2023-04-06T18:35:57.674Z,7.10
2023-04-06T18:41:03.794Z,7.10
2023-04-06T18:46:25.587Z,7.20
2023-04-06T18:51:52.774Z,8.50
2023-04-06T18:57:09.467Z,7.10
2023-04-06T19:02:14.628Z,7.10
2023-04-06T19:07:34.818Z,8.00
2023-04-06T19:12:44.741Z,6.90
2023-04-06T19:17:52.263Z,8.00
2023-04-06T19:23:12.448Z,5.60
2023-04-06T19:28:36.743Z,7.40
2023-04-06T19:33:57.537Z,6.80
2023-04-06T19:39:11.471Z,7.20
2023-04-06T19:45:11.871Z,6.40
2023-04-06T19:50:16.741Z,7.10
2023-04-06T19:55:39.684Z,7.00
2023-04-06T20:00:52.752Z,7.00
2023-04-06T20:06:17.430Z,5.70
2023-04-06T20:11:32.473Z,7.40
2023-04-06T20:16:54.010Z,8.70
2023-04-06T20:22:29.426Z,7.60
2023-04-06T20:27:37.629Z,7.20
2023-04-06T20:32:48.244Z,8.60
2023-04-06T20:37:52.517Z,7.20
2023-04-06T20:42:58.163Z,8.60
2023-04-06T20:48:03.873Z,7.40
2023-04-06T20:53:07.915Z,7.40
2023-04-06T20:58:25.171Z,7.30
2023-04-06T21:03:31.203Z,7.20
2023-04-06T21:08:40.386Z,7.30
2023-04-06T21:13:50.452Z,8.10
2023-04-06T21:18:57.859Z,7.30
2023-04-06T21:29:56.933Z,10.10
2023-04-06T21:35:15.325Z,7.50
2023-04-06T21:40:21.121Z,7.50
2023-04-06T21:45:37.379Z,9.00
2023-04-06T21:50:46.810Z,7.20
2023-04-06T21:56:01.218Z,7.10
2023-04-06T22:01:04.897Z,7.10
2023-04-06T22:06:22.075Z,7.10
2023-04-06T22:11:28.483Z,7.10
2023-04-06T22:16:34.911Z,6.50
2023-04-06T22:21:40.091Z,7.40
2023-04-06T22:26:43.918Z,5.20
2023-04-06T22:31:48.324Z,7.00
2023-04-06T22:36:56.224Z,8.40
2023-04-06T22:42:08.524Z,6.50
2023-04-06T22:47:18.407Z,7.90
2023-04-06T22:52:32.615Z,7.30
2023-04-06T22:57:54.789Z,7.20
2023-04-06T23:02:59.544Z,7.40
2023-04-06T23:08:08.506Z,7.10
2023-04-06T23:13:26.229Z,7.00
2023-04-06T23:19:01.756Z,7.20
2023-04-06T23:24:10.439Z,8.40
2023-04-06T23:29:16.153Z,7.20
2023-04-06T23:34:30.703Z,7.00
2023-04-06T23:40:01.051Z,7.10
2023-04-06T23:45:09.174Z,9.00
2023-04-06T23:50:51.914Z,7.20
2023-04-06T23:56:14.306Z,7.20
